This is the latest recevied weather packets stored in our database for station/object YN9ZAM-13. If no packets are shown the sender has not sent any weather packets the latest 10 day(s).
| Time | Temp. | Humidity | Pressure | Rain* | Wind** | Luminosity | Snow |
|---|---|---|---|---|---|---|---|
| 1777864276 | 24.44° C | 44% | 1013 hPa | 0 mm | - | - | - |
| 1777847466 | 33.89° C | 34% | 1008 hPa | 0 mm | - | - | - |
| 1777846265 | 30.56° C | 30% | 1008 hPa | 0 mm | - | - | - |
| 1777845665 | 31.11° C | 30% | 1008 hPa | 0 mm | - | - | - |
| 1777845064 | 31.11° C | 30% | 1008 hPa | 0 mm | - | - | - |
| 1777843263 | 32.78° C | 30% | 1008 hPa | 0 mm | - | - | - |
| 1777842662 | 33.33° C | 30% | 1008 hPa | 0 mm | - | - | - |
| 1777841462 | 34.44° C | 30% | 1008 hPa | 0 mm | - | - | - |
| 1777840261 | 35.56° C | 30% | 1009 hPa | 0 mm | - | - | - |
| 1777839660 | 33.33° C | 30% | 1009 hPa | 0 mm | - | - | - |
| 1777839060 | 33.33° C | 30% | 1009 hPa | 0 mm | - | - | - |
| 1777836659 | 32.22° C | 30% | 1009 hPa | 0 mm | - | - | - |
| 1777836059 | 31.67° C | 34% | 1010 hPa | 0 mm | - | - | - |
| 1777835458 | 31.67° C | 33% | 1010 hPa | 0 mm | - | - | - |
| 1777834858 | 31.67° C | 32% | 1010 hPa | 0 mm | - | - | - |
| 1777834258 | 31.67° C | 32% | 1010 hPa | 0 mm | - | - | - |
| 1777833657 | 31.11° C | 34% | 1010 hPa | 0 mm | - | - | - |
| 1777832457 | 31.11° C | 38% | 1011 hPa | 0 mm | - | - | - |
| 1777827654 | 30° C | 44% | 1013 hPa | 0 mm | - | - | - |
| 1777825853 | 29.44° C | 49% | 1013 hPa | 0 mm | - | - | - |
| 1777825253 | 28.89° C | 56% | 1014 hPa | 0 mm | - | - | - |
| 1777824052 | 28.89° C | 57% | 1014 hPa | 0 mm | - | - | - |
| 1777823452 | 28.89° C | 57% | 1014 hPa | 0 mm | - | - | - |
| 1777822852 | 28.89° C | 66% | 1014 hPa | 0 mm | - | - | - |
| 1777821651 | 30° C | 66% | 1014 hPa | 0 mm | - | - | - |
* Rain latest hour (hover to see other rain measurements)
** Current wind speed in m/s (hover to see current wind gust speed)